createdAt,value
2022-11-17T00:01:48.997Z,7.30
2022-11-17T00:06:06.967Z,7.30
2022-11-17T00:10:24.214Z,7.20
2022-11-17T00:14:41.507Z,7.20
2022-11-17T00:19:17.528Z,7.20
2022-11-17T00:23:47.470Z,7.20
2022-11-17T00:28:05.046Z,7.10
2022-11-17T00:32:40.818Z,7.10
2022-11-17T00:36:58.102Z,7.20
2022-11-17T00:41:15.330Z,7.00
2022-11-17T00:45:32.698Z,7.00
2022-11-17T00:49:49.900Z,6.90
2022-11-17T00:54:10.133Z,6.90
2022-11-17T00:58:27.324Z,7.00
2022-11-17T01:02:44.628Z,7.00
2022-11-17T01:07:01.827Z,7.10
2022-11-17T01:11:19.809Z,7.10
2022-11-17T01:15:37.068Z,7.10
2022-11-17T01:19:54.280Z,7.20
2022-11-17T01:24:12.931Z,7.20
2022-11-17T01:28:30.238Z,7.20
2022-11-17T01:32:47.571Z,7.20
2022-11-17T01:37:20.057Z,7.20
2022-11-17T01:41:37.233Z,7.20
2022-11-17T01:45:54.756Z,7.10
2022-11-17T01:50:33.599Z,7.20
2022-11-17T01:54:53.345Z,7.10
2022-11-17T01:59:20.050Z,7.20
2022-11-17T02:03:39.779Z,7.10
2022-11-17T02:08:00.952Z,7.10
2022-11-17T02:12:18.991Z,7.20
2022-11-17T02:16:36.155Z,7.20
2022-11-17T02:21:27.320Z,7.30
2022-11-17T02:26:22.036Z,7.20
2022-11-17T02:30:55.879Z,7.00
2022-11-17T02:35:36.209Z,7.00
2022-11-17T02:40:21.730Z,7.00
2022-11-17T02:44:57.816Z,7.00
2022-11-17T02:49:29.451Z,6.80
2022-11-17T02:53:47.972Z,6.90
2022-11-17T02:58:11.359Z,6.90
2022-11-17T03:03:10.229Z,6.90
2022-11-17T03:07:30.363Z,6.90
2022-11-17T03:11:59.811Z,6.90
2022-11-17T03:16:34.950Z,6.80
2022-11-17T03:21:16.554Z,6.60
2022-11-17T03:25:37.580Z,6.60
2022-11-17T03:30:00.574Z,6.60
2022-11-17T03:34:22.015Z,6.50
2022-11-17T03:39:01.432Z,6.40
2022-11-17T03:43:20.059Z,6.30
2022-11-17T03:47:37.763Z,6.30
2022-11-17T03:51:55.495Z,6.40
2022-11-17T03:56:40.092Z,6.40
2022-11-17T04:01:00.679Z,6.40
2022-11-17T04:05:18.132Z,6.40
2022-11-17T04:09:35.299Z,6.40
2022-11-17T04:14:11.308Z,6.40
2022-11-17T04:18:28.521Z,6.60
2022-11-17T04:22:45.703Z,6.60
2022-11-17T04:27:21.863Z,6.60
2022-11-17T04:31:39.155Z,6.60
2022-11-17T04:35:57.205Z,6.60
2022-11-17T04:40:14.730Z,6.60
2022-11-17T04:44:33.166Z,6.60
2022-11-17T04:48:51.931Z,6.60
2022-11-17T04:53:09.094Z,6.50
2022-11-17T04:57:26.354Z,6.50
2022-11-17T05:01:44.374Z,6.40
2022-11-17T05:06:01.546Z,6.20
2022-11-17T05:10:38.823Z,6.20
2022-11-17T05:14:56.086Z,6.20
2022-11-17T05:19:16.386Z,6.10
2022-11-17T05:23:53.097Z,6.10
2022-11-17T05:28:10.379Z,6.10
2022-11-17T05:32:27.615Z,6.10
2022-11-17T05:36:45.568Z,6.10
2022-11-17T05:41:02.775Z,6.00
2022-11-17T05:45:19.962Z,6.00
2022-11-17T05:49:37.119Z,5.90
2022-11-17T05:53:54.334Z,6.00
2022-11-17T05:58:21.287Z,6.10
2022-11-17T06:02:44.357Z,6.20
2022-11-17T06:07:02.457Z,6.20
2022-11-17T06:11:20.024Z,6.20
2022-11-17T06:15:37.764Z,6.10
2022-11-17T06:19:59.762Z,6.00
2022-11-17T06:24:17.606Z,6.00
2022-11-17T06:28:36.163Z,6.00
2022-11-17T06:32:53.714Z,5.90
2022-11-17T06:37:11.539Z,5.80
2022-11-17T06:41:28.889Z,5.80
2022-11-17T06:45:46.767Z,5.80
2022-11-17T06:50:04.940Z,5.80
2022-11-17T06:54:22.236Z,5.80
2022-11-17T06:58:41.517Z,5.80
2022-11-17T07:03:03.689Z,5.90
2022-11-17T07:07:20.943Z,6.00
2022-11-17T07:11:38.194Z,5.90
2022-11-17T07:15:55.389Z,6.00
2022-11-17T07:20:13.215Z,6.00
2022-11-17T07:24:30.442Z,6.10
2022-11-17T07:28:47.652Z,6.20
2022-11-17T07:33:06.128Z,6.30
2022-11-17T07:37:23.308Z,6.40
2022-11-17T07:41:40.690Z,6.40
2022-11-17T07:45:57.935Z,6.40
2022-11-17T07:50:15.995Z,6.50
2022-11-17T07:54:33.203Z,6.60
2022-11-17T07:58:50.392Z,6.70
2022-11-17T08:03:08.132Z,6.60
2022-11-17T08:07:25.397Z,6.60
2022-11-17T08:11:42.593Z,6.60
2022-11-17T08:15:59.916Z,6.70
2022-11-17T08:20:17.148Z,7.00
2022-11-17T08:24:34.331Z,7.10
2022-11-17T08:28:57.915Z,7.20
2022-11-17T08:33:15.630Z,7.30
2022-11-17T08:37:33.191Z,7.40
2022-11-17T08:41:51.838Z,7.50
2022-11-17T08:46:12.882Z,7.60
2022-11-17T08:50:30.126Z,7.60
2022-11-17T08:54:47.308Z,7.60
2022-11-17T08:59:04.748Z,7.60
2022-11-17T09:03:22.017Z,7.40
2022-11-17T09:07:40.211Z,7.40
2022-11-17T09:11:58.272Z,7.60
2022-11-17T09:16:16.845Z,7.50
2022-11-17T09:20:34.126Z,7.40
2022-11-17T09:24:51.329Z,7.50
2022-11-17T09:29:09.424Z,7.40
2022-11-17T09:33:27.066Z,7.30
2022-11-17T09:37:44.668Z,7.30
2022-11-17T09:42:01.953Z,7.50
2022-11-17T09:46:46.538Z,7.60
2022-11-17T09:51:07.962Z,7.60
2022-11-17T09:55:40.824Z,7.70
2022-11-17T10:00:06.450Z,7.90
2022-11-17T10:04:28.343Z,7.80
2022-11-17T10:09:00.373Z,7.80
2022-11-17T10:13:24.724Z,7.80
2022-11-17T10:17:42.687Z,7.80
2022-11-17T10:22:02.728Z,7.90
2022-11-17T10:26:19.929Z,8.00
2022-11-17T10:30:37.276Z,7.80
2022-11-17T10:34:55.121Z,7.80
2022-11-17T10:39:36.941Z,7.70
2022-11-17T10:44:12.455Z,7.80
2022-11-17T10:48:33.014Z,7.90
2022-11-17T10:52:52.150Z,8.20
2022-11-17T10:57:22.072Z,8.30
2022-11-17T11:01:44.573Z,8.60
2022-11-17T11:06:06.639Z,8.60
2022-11-17T11:10:35.179Z,8.50
2022-11-17T11:14:56.405Z,8.50
2022-11-17T11:19:16.474Z,8.40
2022-11-17T11:23:36.673Z,8.40
2022-11-17T11:28:15.916Z,8.80
2022-11-17T11:32:54.488Z,9.10
2022-11-17T11:37:14.989Z,9.40
2022-11-17T11:42:07.963Z,9.30
2022-11-17T11:46:55.950Z,9.30
2022-11-17T11:51:21.057Z,9.50
2022-11-17T11:55:41.494Z,9.50
2022-11-17T12:00:07.919Z,10.90
2022-11-17T12:05:21.744Z,10.50
2022-11-17T12:10:08.318Z,10.40
2022-11-17T12:14:26.013Z,10.40
2022-11-17T12:18:43.494Z,10.20
2022-11-17T12:23:15.938Z,10.20
2022-11-17T12:27:36.295Z,10.00
2022-11-17T12:31:56.089Z,9.80
2022-11-17T12:36:31.558Z,9.70
2022-11-17T12:40:48.866Z,9.60
2022-11-17T12:45:13.315Z,9.50
2022-11-17T12:49:59.892Z,9.40
2022-11-17T12:54:54.462Z,9.50
2022-11-17T12:59:25.572Z,9.50
2022-11-17T13:04:02.581Z,9.50
2022-11-17T13:08:24.043Z,9.10
2022-11-17T13:12:41.277Z,9.00
2022-11-17T13:17:00.437Z,8.80
2022-11-17T13:21:30.150Z,8.70
2022-11-17T13:25:47.790Z,8.70
2022-11-17T13:30:21.509Z,8.70
2022-11-17T13:34:57.339Z,8.60
2022-11-17T13:39:19.669Z,8.60
2022-11-17T13:43:40.537Z,8.60
2022-11-17T13:47:59.413Z,8.60
2022-11-17T13:52:43.604Z,8.50
2022-11-17T13:57:07.414Z,8.50
2022-11-17T14:01:29.246Z,8.50
2022-11-17T14:05:59.015Z,8.50
2022-11-17T14:10:22.312Z,8.40
2022-11-17T14:14:39.659Z,8.40
2022-11-17T14:19:05.727Z,8.30
2022-11-17T14:23:22.955Z,8.30
2022-11-17T14:27:40.416Z,8.20
2022-11-17T14:31:57.688Z,8.20
2022-11-17T14:36:16.402Z,8.10
2022-11-17T14:40:33.604Z,8.00
2022-11-17T14:44:50.714Z,8.00
2022-11-17T14:49:08.484Z,8.00
2022-11-17T14:53:26.296Z,8.00
2022-11-17T14:57:43.525Z,8.00
2022-11-17T15:02:00.777Z,8.00
2022-11-17T15:06:20.332Z,8.10
2022-11-17T15:10:42.930Z,8.00
2022-11-17T15:15:00.165Z,8.10
2022-11-17T15:19:17.467Z,8.10
2022-11-17T15:23:37.579Z,8.10
2022-11-17T15:27:55.980Z,8.20
2022-11-17T15:32:13.213Z,8.20
2022-11-17T15:36:31.767Z,8.10
2022-11-17T15:40:54.512Z,8.20
2022-11-17T15:45:11.738Z,8.30
2022-11-17T15:49:28.940Z,8.20
2022-11-17T15:53:47.850Z,8.20
2022-11-17T15:58:05.044Z,8.10
2022-11-17T16:02:22.286Z,8.00
2022-11-17T16:06:41.344Z,8.00
2022-11-17T16:10:58.605Z,7.90
2022-11-17T16:15:16.598Z,7.90
2022-11-17T16:19:33.778Z,7.80
2022-11-17T16:23:56.065Z,7.90
2022-11-17T16:28:14.020Z,7.90
2022-11-17T16:32:31.675Z,8.00
2022-11-17T16:36:49.179Z,8.00
2022-11-17T16:41:06.672Z,8.10
2022-11-17T16:45:24.454Z,8.10
2022-11-17T16:49:41.835Z,8.20
2022-11-17T16:54:04.995Z,8.30
2022-11-17T16:58:22.449Z,8.30
2022-11-17T17:02:39.940Z,8.30
2022-11-17T17:06:57.439Z,8.20
2022-11-17T17:11:16.275Z,8.20
2022-11-17T17:15:33.610Z,8.00
2022-11-17T17:19:51.279Z,8.00
2022-11-17T17:24:09.998Z,8.00
2022-11-17T17:28:29.059Z,7.90
2022-11-17T17:32:46.519Z,7.90
2022-11-17T17:37:03.965Z,7.80
2022-11-17T17:41:22.524Z,7.80
2022-11-17T17:45:40.017Z,7.90
2022-11-17T17:49:57.416Z,7.90
2022-11-17T17:54:18.008Z,7.90
2022-11-17T17:58:41.429Z,7.90
2022-11-17T18:03:00.856Z,7.90
2022-11-17T18:07:18.469Z,7.90
2022-11-17T18:11:36.587Z,7.90
2022-11-17T18:15:54.056Z,7.90
2022-11-17T18:20:12.087Z,8.00
2022-11-17T18:24:29.513Z,7.90
2022-11-17T18:29:04.974Z,7.80
2022-11-17T18:33:22.486Z,7.80
2022-11-17T18:37:39.830Z,7.70
2022-11-17T18:41:57.397Z,7.60
2022-11-17T18:46:17.794Z,7.60
2022-11-17T18:50:47.524Z,7.50
2022-11-17T18:55:12.324Z,7.40
2022-11-17T18:59:29.554Z,7.40
2022-11-17T19:03:49.441Z,7.30
2022-11-17T19:08:06.802Z,7.20
2022-11-17T19:12:24.214Z,7.20
2022-11-17T19:16:44.767Z,7.30
2022-11-17T19:21:11.556Z,7.30
2022-11-17T19:25:29.017Z,7.40
2022-11-17T19:29:46.432Z,7.40
2022-11-17T19:34:04.723Z,7.50
2022-11-17T19:38:22.142Z,7.50
2022-11-17T19:42:41.684Z,7.60
2022-11-17T19:46:59.126Z,7.60
2022-11-17T19:51:22.874Z,7.70
2022-11-17T19:55:40.432Z,7.70
2022-11-17T19:59:57.923Z,7.70
2022-11-17T20:04:15.342Z,7.80
2022-11-17T20:08:32.739Z,7.80
2022-11-17T20:12:49.944Z,7.80
2022-11-17T20:17:07.160Z,7.80
2022-11-17T20:21:25.553Z,7.80
2022-11-17T20:25:42.740Z,7.80
2022-11-17T20:29:59.923Z,7.80
2022-11-17T20:34:17.307Z,7.80
2022-11-17T20:38:35.925Z,7.70
2022-11-17T20:42:53.079Z,7.70
2022-11-17T20:47:10.252Z,7.70
2022-11-17T20:51:27.531Z,7.70
2022-11-17T20:55:44.706Z,7.70
2022-11-17T21:00:01.883Z,7.70
2022-11-17T21:04:19.126Z,7.70
2022-11-17T21:08:38.538Z,7.80
2022-11-17T21:12:55.691Z,7.80
2022-11-17T21:17:32.917Z,7.90
2022-11-17T21:21:53.740Z,7.90
2022-11-17T21:26:16.887Z,7.90
2022-11-17T21:30:34.070Z,7.90
2022-11-17T21:34:51.756Z,7.80
2022-11-17T21:39:09.035Z,7.90
2022-11-17T21:43:26.232Z,7.90
2022-11-17T21:47:43.412Z,7.80
2022-11-17T21:52:00.824Z,7.70
2022-11-17T21:56:18.153Z,7.70
2022-11-17T22:00:35.449Z,7.60
2022-11-17T22:04:52.667Z,7.60
2022-11-17T22:09:09.944Z,7.60
2022-11-17T22:13:30.447Z,7.60
2022-11-17T22:17:48.699Z,7.70
2022-11-17T22:22:07.263Z,7.50
2022-11-17T22:26:24.683Z,7.50
2022-11-17T22:30:41.847Z,7.50
2022-11-17T22:35:01.665Z,7.50
2022-11-17T22:39:19.215Z,7.60
2022-11-17T22:43:38.135Z,7.60
2022-11-17T22:47:55.339Z,7.60
2022-11-17T22:52:12.826Z,7.60
2022-11-17T22:56:30.230Z,7.70
2022-11-17T23:00:47.425Z,7.80
2022-11-17T23:05:04.903Z,7.80
2022-11-17T23:09:22.176Z,7.70
2022-11-17T23:13:39.403Z,7.70
2022-11-17T23:17:56.629Z,7.70
2022-11-17T23:22:13.868Z,7.70
2022-11-17T23:26:31.040Z,7.70
2022-11-17T23:30:48.229Z,7.70
2022-11-17T23:35:05.767Z,7.80
2022-11-17T23:39:22.974Z,7.70
2022-11-17T23:43:40.649Z,7.70
2022-11-17T23:47:57.828Z,7.70
2022-11-17T23:52:15.064Z,7.60
2022-11-17T23:56:34.297Z,7.60
